﻿<?xml version="1.0" encoding="utf-8"?><gpx creator="Garmin Desktop App" version="1.1" xsi:schemaLocation="http://www.topografix.com/GPX/1/1 http://www.topografix.com/GPX/1/1/gpx.xsd http://www.garmin.com/xmlschemas/WaypointExtension/v1 http://www8.garmin.com/xmlschemas/WaypointExtensionv1.xsd http://www.garmin.com/xmlschemas/TrackPointExtension/v1 http://www.garmin.com/xmlschemas/TrackPointExtensionv1.xsd http://www.garmin.com/xmlschemas/GpxExtensions/v3 http://www8.garmin.com/xmlschemas/GpxExtensionsv3.xsd http://www.garmin.com/xmlschemas/ActivityExtension/v1 http://www8.garmin.com/xmlschemas/ActivityExtensionv1.xsd http://www.garmin.com/xmlschemas/AdventuresExtensions/v1 http://www8.garmin.com/xmlschemas/AdventuresExtensionv1.xsd http://www.garmin.com/xmlschemas/PressureExtension/v1 http://www.garmin.com/xmlschemas/PressureExtensionv1.xsd http://www.garmin.com/xmlschemas/TripExtensions/v1 http://www.garmin.com/xmlschemas/TripExtensionsv1.xsd http://www.garmin.com/xmlschemas/TripMetaDataExtensions/v1 http://www.garmin.com/xmlschemas/TripMetaDataExtensionsv1.xsd http://www.garmin.com/xmlschemas/ViaPointTransportationModeExtensions/v1 http://www.garmin.com/xmlschemas/ViaPointTransportationModeExtensionsv1.xsd http://www.garmin.com/xmlschemas/CreationTimeExtension/v1 http://www.garmin.com/xmlschemas/CreationTimeExtensionsv1.xsd http://www.garmin.com/xmlschemas/AccelerationExtension/v1 http://www.garmin.com/xmlschemas/AccelerationExtensionv1.xsd http://www.garmin.com/xmlschemas/PowerExtension/v1 http://www.garmin.com/xmlschemas/PowerExtensionv1.xsd http://www.garmin.com/xmlschemas/VideoExtension/v1 http://www.garmin.com/xmlschemas/VideoExtensionv1.xsd" xmlns="http://www.topografix.com/GPX/1/1" xmlns:xsi="http://www.w3.org/2001/XMLSchema-instance" xmlns:wptx1="http://www.garmin.com/xmlschemas/WaypointExtension/v1" xmlns:gpxtrx="http://www.garmin.com/xmlschemas/GpxExtensions/v3" xmlns:gpxtpx="http://www.garmin.com/xmlschemas/TrackPointExtension/v1" xmlns:gpxx="http://www.garmin.com/xmlschemas/GpxExtensions/v3" xmlns:trp="http://www.garmin.com/xmlschemas/TripExtensions/v1" xmlns:adv="http://www.garmin.com/xmlschemas/AdventuresExtensions/v1" xmlns:prs="http://www.garmin.com/xmlschemas/PressureExtension/v1" xmlns:tmd="http://www.garmin.com/xmlschemas/TripMetaDataExtensions/v1" xmlns:vptm="http://www.garmin.com/xmlschemas/ViaPointTransportationModeExtensions/v1" xmlns:ctx="http://www.garmin.com/xmlschemas/CreationTimeExtension/v1" xmlns:gpxacc="http://www.garmin.com/xmlschemas/AccelerationExtension/v1" xmlns:gpxpx="http://www.garmin.com/xmlschemas/PowerExtension/v1" xmlns:vidx1="http://www.garmin.com/xmlschemas/VideoExtension/v1">

  <metadata>
    <link href="http://www.garmin.com">
      <text>Garmin International</text>
    </link>
    <time>2015-11-26T06:16:35Z</time>
    <bounds maxlat="40.649492600932717" maxlon="14.602347537875175" minlat="40.643268870189786" minlon="14.587094401940703" />
  </metadata>

  <wpt lat="40.64944532699883" lon="14.587094401940703">
    <ele>244</ele>
    <time>2014-06-02T13:54:45Z</time>
    <name>Fine 323a</name>
    <cmt>Inizio sentiero</cmt>
    <desc>Inizio sentiero</desc>
    <sym>Trail Head</sym>
    <type>user</type>
    <extensions>
      <gpxx:WaypointExtension>
        <gpxx:DisplayMode>SymbolAndName</gpxx:DisplayMode>
      </gpxx:WaypointExtension>
      <wptx1:WaypointExtension>
        <wptx1:DisplayMode>SymbolAndName</wptx1:DisplayMode>
      </wptx1:WaypointExtension>
      <ctx:CreationTimeExtension>
        <ctx:CreationTime>2014-06-02T13:54:45Z</ctx:CreationTime>
      </ctx:CreationTimeExtension>
    </extensions>
  </wpt>

  <wpt lat="40.643668686971068" lon="14.602347537875175">
    <ele>288.44140625</ele>
    <time>2014-06-02T13:55:45Z</time>
    <name>Inizio 323a</name>
    <cmt>Inizio sentiero</cmt>
    <desc>Inizio sentiero</desc>
    <sym>Trail Head</sym>
    <type>user</type>
    <extensions>
      <gpxx:WaypointExtension>
        <gpxx:DisplayMode>SymbolAndName</gpxx:DisplayMode>
      </gpxx:WaypointExtension>
      <wptx1:WaypointExtension>
        <wptx1:DisplayMode>SymbolAndName</wptx1:DisplayMode>
      </wptx1:WaypointExtension>
      <ctx:CreationTimeExtension>
        <ctx:CreationTime>2014-06-02T13:55:45Z</ctx:CreationTime>
      </ctx:CreationTimeExtension>
    </extensions>
  </wpt>

  <trk>
    <name>323a - Difficoltà E</name>
    <extensions>
      <gpxx:TrackExtension>
        <gpxx:DisplayColor>Red</gpxx:DisplayColor>
      </gpxx:TrackExtension>
    </extensions>
    <trkseg>
      <trkpt lat="40.643659215420485" lon="14.602338317781687">
        <ele>282.76999999999998</ele>
        <time>2014-04-11T06:36:22Z</time>
      </trkpt>
      <trkpt lat="40.643631722778082" lon="14.602310489863157">
        <ele>281.80000000000001</ele>
        <time>2014-04-11T06:36:18Z</time>
      </trkpt>
      <trkpt lat="40.64360624179244" lon="14.602252403274179">
        <ele>281.31999999999999</ele>
        <time>2014-04-11T06:36:13Z</time>
      </trkpt>
      <trkpt lat="40.643553519621491" lon="14.602090464904904">
        <ele>280.83999999999997</ele>
        <time>2014-04-11T06:36:02Z</time>
      </trkpt>
      <trkpt lat="40.643499121069908" lon="14.601936908438802">
        <ele>278.44</ele>
        <time>2014-04-11T06:35:51Z</time>
      </trkpt>
      <trkpt lat="40.643419744446874" lon="14.601768599823117">
        <ele>277.48000000000002</ele>
        <time>2014-04-11T06:35:40Z</time>
      </trkpt>
      <trkpt lat="40.643365429714322" lon="14.601643206551671">
        <ele>276.04000000000002</ele>
        <time>2014-04-11T06:35:32Z</time>
      </trkpt>
      <trkpt lat="40.643334332853556" lon="14.601530721411109">
        <ele>272.19</ele>
        <time>2014-04-11T06:35:25Z</time>
      </trkpt>
      <trkpt lat="40.643283370882273" lon="14.601376745849848">
        <ele>270.75</ele>
        <time>2014-04-11T06:35:14Z</time>
      </trkpt>
      <trkpt lat="40.643268870189786" lon="14.601215478032827">
        <ele>270.26999999999998</ele>
        <time>2014-04-11T06:35:04Z</time>
      </trkpt>
      <trkpt lat="40.643281023949385" lon="14.601135263219476">
        <ele>270.75</ele>
        <time>2014-04-11T06:34:58Z</time>
      </trkpt>
      <trkpt lat="40.643357047811151" lon="14.601045660674572">
        <ele>269.79000000000002</ele>
        <time>2014-04-11T06:34:48Z</time>
      </trkpt>
      <trkpt lat="40.643396526575089" lon="14.601006265729666">
        <ele>267.86000000000001</ele>
        <time>2014-04-11T06:34:40Z</time>
      </trkpt>
      <trkpt lat="40.643421420827508" lon="14.600974330678582">
        <ele>265.45999999999998</ele>
        <time>2014-04-11T06:34:36Z</time>
      </trkpt>
      <trkpt lat="40.64351923763752" lon="14.600913310423493">
        <ele>263.06</ele>
        <time>2014-04-11T06:34:26Z</time>
      </trkpt>
      <trkpt lat="40.64354756847024" lon="14.600900486111641">
        <ele>261.13999999999999</ele>
        <time>2014-04-11T06:34:22Z</time>
      </trkpt>
      <trkpt lat="40.643614791333675" lon="14.600842567160726">
        <ele>260.17000000000002</ele>
        <time>2014-04-11T06:34:14Z</time>
      </trkpt>
      <trkpt lat="40.643715122714639" lon="14.600775511935353">
        <ele>259.69</ele>
        <time>2014-04-11T06:34:05Z</time>
      </trkpt>
      <trkpt lat="40.64381243661046" lon="14.600693620741367">
        <ele>255.84999999999999</ele>
        <time>2014-04-11T06:33:54Z</time>
      </trkpt>
      <trkpt lat="40.643827440217137" lon="14.600657410919666">
        <ele>255.84999999999999</ele>
        <time>2014-04-11T06:33:51Z</time>
      </trkpt>
      <trkpt lat="40.643885526806116" lon="14.60051785223186">
        <ele>254.88999999999999</ele>
        <time>2014-04-11T06:33:41Z</time>
      </trkpt>
      <trkpt lat="40.643886113539338" lon="14.600388435646892">
        <ele>252.47999999999999</ele>
        <time>2014-04-11T06:33:31Z</time>
      </trkpt>
      <trkpt lat="40.643882593140006" lon="14.600314423441887">
        <ele>252</ele>
        <time>2014-04-11T06:33:21Z</time>
      </trkpt>
      <trkpt lat="40.643902709707618" lon="14.600023068487644">
        <ele>253.93000000000001</ele>
        <time>2014-04-11T06:33:05Z</time>
      </trkpt>
      <trkpt lat="40.643902206793427" lon="14.599801618605852">
        <ele>254.88999999999999</ele>
        <time>2014-04-11T06:32:53Z</time>
      </trkpt>
      <trkpt lat="40.644057858735323" lon="14.599656946957111">
        <ele>256.81</ele>
        <time>2014-04-11T06:32:40Z</time>
      </trkpt>
      <trkpt lat="40.644221557304263" lon="14.599486123770475">
        <ele>257.76999999999998</ele>
        <time>2014-04-11T06:32:25Z</time>
      </trkpt>
      <trkpt lat="40.644286265596747" lon="14.599413787946105">
        <ele>258.25</ele>
        <time>2014-04-11T06:32:19Z</time>
      </trkpt>
      <trkpt lat="40.644384501501918" lon="14.599114470183849">
        <ele>259.20999999999998</ele>
        <time>2014-04-11T06:32:05Z</time>
      </trkpt>
      <trkpt lat="40.644410904496908" lon="14.599048001691699">
        <ele>259.20999999999998</ele>
        <time>2014-04-11T06:32:01Z</time>
      </trkpt>
      <trkpt lat="40.644490448758006" lon="14.598939623683691">
        <ele>260.64999999999998</ele>
        <time>2014-04-11T06:31:49Z</time>
      </trkpt>
      <trkpt lat="40.644576279446483" lon="14.598824037238955">
        <ele>263.06</ele>
        <time>2014-04-11T06:31:37Z</time>
      </trkpt>
      <trkpt lat="40.644602766260505" lon="14.598801573738456">
        <ele>264.98000000000002</ele>
        <time>2014-04-11T06:31:25Z</time>
      </trkpt>
      <trkpt lat="40.644669318571687" lon="14.598688082769513">
        <ele>266.42000000000002</ele>
        <time>2014-04-11T06:31:15Z</time>
      </trkpt>
      <trkpt lat="40.644718687981367" lon="14.59857459180057">
        <ele>266.89999999999998</ele>
        <time>2014-04-11T06:31:06Z</time>
      </trkpt>
      <trkpt lat="40.644725393503904" lon="14.598525054752827">
        <ele>266.89999999999998</ele>
        <time>2014-04-11T06:30:53Z</time>
      </trkpt>
      <trkpt lat="40.644743666052818" lon="14.598483899608254">
        <ele>266.42000000000002</ele>
        <time>2014-04-11T06:30:32Z</time>
      </trkpt>
      <trkpt lat="40.644816420972347" lon="14.598362278193235">
        <ele>267.38</ele>
        <time>2014-04-11T06:30:22Z</time>
      </trkpt>
      <trkpt lat="40.644863191992044" lon="14.598232274875045">
        <ele>267.86000000000001</ele>
        <time>2014-04-11T06:30:06Z</time>
      </trkpt>
      <trkpt lat="40.644890265539289" lon="14.597891801968217">
        <ele>268.82999999999998</ele>
        <time>2014-04-11T06:29:50Z</time>
      </trkpt>
      <trkpt lat="40.644858498126268" lon="14.597655097022653">
        <ele>268.82999999999998</ele>
        <time>2014-04-11T06:29:38Z</time>
      </trkpt>
      <trkpt lat="40.644851122051477" lon="14.597581587731838">
        <ele>270.26999999999998</ele>
        <time>2014-04-11T06:29:34Z</time>
      </trkpt>
      <trkpt lat="40.644862437620759" lon="14.597417470067739">
        <ele>272.19</ele>
        <time>2014-04-11T06:29:23Z</time>
      </trkpt>
      <trkpt lat="40.644876267760992" lon="14.597388301044703">
        <ele>273.14999999999998</ele>
        <time>2014-04-11T06:29:21Z</time>
      </trkpt>
      <trkpt lat="40.644936198368669" lon="14.597309092059731">
        <ele>275.06999999999999</ele>
        <time>2014-04-11T06:29:15Z</time>
      </trkpt>
      <trkpt lat="40.64496117644012" lon="14.597295178100467">
        <ele>275.56</ele>
        <time>2014-04-11T06:29:13Z</time>
      </trkpt>
      <trkpt lat="40.645103249698877" lon="14.597150003537536">
        <ele>277</ele>
        <time>2014-04-11T06:29:00Z</time>
      </trkpt>
      <trkpt lat="40.645138621330261" lon="14.597071800380945">
        <ele>278.44</ele>
        <time>2014-04-11T06:28:54Z</time>
      </trkpt>
      <trkpt lat="40.645194360986352" lon="14.597031818702817">
        <ele>279.39999999999998</ele>
        <time>2014-04-11T06:28:49Z</time>
      </trkpt>
      <trkpt lat="40.645328974351287" lon="14.597019832581282">
        <ele>280.83999999999997</ele>
        <time>2014-04-11T06:28:39Z</time>
      </trkpt>
      <trkpt lat="40.645356802269816" lon="14.596958393231034">
        <ele>281.80000000000001</ele>
        <time>2014-04-11T06:28:16Z</time>
      </trkpt>
      <trkpt lat="40.645332494750619" lon="14.596915813162923">
        <ele>281.80000000000001</ele>
        <time>2014-04-11T06:28:07Z</time>
      </trkpt>
      <trkpt lat="40.645371554419398" lon="14.596898378804326">
        <ele>282.27999999999997</ele>
        <time>2014-04-11T06:28:04Z</time>
      </trkpt>
      <trkpt lat="40.645415727049112" lon="14.596870383247733">
        <ele>283.25</ele>
        <time>2014-04-11T06:28:00Z</time>
      </trkpt>
      <trkpt lat="40.64543760381639" lon="14.596762591972947">
        <ele>284.69</ele>
        <time>2014-04-11T06:27:53Z</time>
      </trkpt>
      <trkpt lat="40.645463587716222" lon="14.596705762669444">
        <ele>285.64999999999998</ele>
        <time>2014-04-11T06:27:49Z</time>
      </trkpt>
      <trkpt lat="40.645469035953283" lon="14.596656057983637">
        <ele>285.64999999999998</ele>
        <time>2014-04-11T06:27:46Z</time>
      </trkpt>
      <trkpt lat="40.645487979054451" lon="14.596583303064108">
        <ele>285.64999999999998</ele>
        <time>2014-04-11T06:27:42Z</time>
      </trkpt>
      <trkpt lat="40.645505748689175" lon="14.596560001373291">
        <ele>287.08999999999997</ele>
        <time>2014-04-11T06:27:40Z</time>
      </trkpt>
      <trkpt lat="40.645565427839756" lon="14.596501579508185">
        <ele>289.00999999999999</ele>
        <time>2014-04-11T06:27:34Z</time>
      </trkpt>
      <trkpt lat="40.645648827776313" lon="14.596348442137241">
        <ele>289.97000000000003</ele>
        <time>2014-04-11T06:27:22Z</time>
      </trkpt>
      <trkpt lat="40.64573809504509" lon="14.596172338351607">
        <ele>292.38</ele>
        <time>2014-04-11T06:27:11Z</time>
      </trkpt>
      <trkpt lat="40.645778328180313" lon="14.596021380275488">
        <ele>292.86000000000001</ele>
        <time>2014-04-11T06:27:01Z</time>
      </trkpt>
      <trkpt lat="40.645755529403687" lon="14.595866147428751">
        <ele>292.86000000000001</ele>
        <time>2014-04-11T06:26:51Z</time>
      </trkpt>
      <trkpt lat="40.645816046744585" lon="14.595742681995034">
        <ele>293.81999999999999</ele>
        <time>2014-04-11T06:26:43Z</time>
      </trkpt>
      <trkpt lat="40.645844712853432" lon="14.595476472750306">
        <ele>295.25999999999999</ele>
        <time>2014-04-11T06:26:30Z</time>
      </trkpt>
      <trkpt lat="40.645851418375969" lon="14.595463145524263">
        <ele>294.77999999999997</ele>
        <time>2014-04-11T06:26:29Z</time>
      </trkpt>
      <trkpt lat="40.645869858562946" lon="14.595382763072848">
        <ele>295.25999999999999</ele>
        <time>2014-04-11T06:26:24Z</time>
      </trkpt>
      <trkpt lat="40.645883437246084" lon="14.595316043123603">
        <ele>296.22000000000003</ele>
        <time>2014-04-11T06:26:13Z</time>
      </trkpt>
      <trkpt lat="40.645905733108521" lon="14.595183860510588">
        <ele>297.18000000000001</ele>
        <time>2014-04-11T06:26:00Z</time>
      </trkpt>
      <trkpt lat="40.645925179123878" lon="14.594921758398414">
        <ele>297.67000000000002</ele>
        <time>2014-04-11T06:25:48Z</time>
      </trkpt>
      <trkpt lat="40.645903469994664" lon="14.594809943810105">
        <ele>300.06999999999999</ele>
        <time>2014-04-11T06:25:38Z</time>
      </trkpt>
      <trkpt lat="40.645887963473797" lon="14.594651525840163">
        <ele>301.99000000000001</ele>
        <time>2014-04-11T06:25:29Z</time>
      </trkpt>
      <trkpt lat="40.645891819149256" lon="14.5946323312819">
        <ele>302.47000000000003</ele>
        <time>2014-04-11T06:25:28Z</time>
      </trkpt>
      <trkpt lat="40.645908499136567" lon="14.594436530023813">
        <ele>303.91000000000003</ele>
        <time>2014-04-11T06:25:16Z</time>
      </trkpt>
      <trkpt lat="40.645923838019371" lon="14.594226395711303">
        <ele>305.36000000000001</ele>
        <time>2014-04-11T06:25:05Z</time>
      </trkpt>
      <trkpt lat="40.646000280976295" lon="14.594053812325001">
        <ele>307.27999999999997</ele>
        <time>2014-04-11T06:24:55Z</time>
      </trkpt>
      <trkpt lat="40.646025342866778" lon="14.593999497592449">
        <ele>308.72000000000003</ele>
        <time>2014-04-11T06:24:53Z</time>
      </trkpt>
      <trkpt lat="40.646039759740233" lon="14.593933364376426">
        <ele>310.16000000000003</ele>
        <time>2014-04-11T06:24:50Z</time>
      </trkpt>
      <trkpt lat="40.646052416414022" lon="14.593892125412822">
        <ele>312.08999999999997</ele>
        <time>2014-04-11T06:24:48Z</time>
      </trkpt>
      <trkpt lat="40.646081836894155" lon="14.593714512884617">
        <ele>314.49000000000001</ele>
        <time>2014-04-11T06:24:35Z</time>
      </trkpt>
      <trkpt lat="40.64610606059432" lon="14.593503288924694">
        <ele>314.49000000000001</ele>
        <time>2014-04-11T06:24:23Z</time>
      </trkpt>
      <trkpt lat="40.646135564893484" lon="14.593412177637219">
        <ele>314.00999999999999</ele>
        <time>2014-04-11T06:24:15Z</time>
      </trkpt>
      <trkpt lat="40.646135732531548" lon="14.593395497649908">
        <ele>313.05000000000001</ele>
        <time>2014-04-11T06:24:14Z</time>
      </trkpt>
      <trkpt lat="40.646149730309844" lon="14.593340177088976">
        <ele>313.05000000000001</ele>
        <time>2014-04-11T06:24:10Z</time>
      </trkpt>
      <trkpt lat="40.646183006465435" lon="14.593181256204844">
        <ele>311.12</ele>
        <time>2014-04-11T06:23:59Z</time>
      </trkpt>
      <trkpt lat="40.646194657310843" lon="14.593156697228551">
        <ele>310.63999999999999</ele>
        <time>2014-04-11T06:23:57Z</time>
      </trkpt>
      <trkpt lat="40.646304208785295" lon="14.593066424131393">
        <ele>308.24000000000001</ele>
        <time>2014-04-11T06:23:46Z</time>
      </trkpt>
      <trkpt lat="40.646434463560581" lon="14.593007415533066">
        <ele>306.31999999999999</ele>
        <time>2014-04-11T06:23:35Z</time>
      </trkpt>
      <trkpt lat="40.646459693089128" lon="14.592956705018878">
        <ele>304.38999999999999</ele>
        <time>2014-04-11T06:23:31Z</time>
      </trkpt>
      <trkpt lat="40.646495651453733" lon="14.592825947329402">
        <ele>302.47000000000003</ele>
        <time>2014-04-11T06:23:22Z</time>
      </trkpt>
      <trkpt lat="40.646617859601974" lon="14.592671720311046">
        <ele>301.50999999999999</ele>
        <time>2014-04-11T06:23:09Z</time>
      </trkpt>
      <trkpt lat="40.646641664206982" lon="14.592652693390846">
        <ele>300.55000000000001</ele>
        <time>2014-04-11T06:23:07Z</time>
      </trkpt>
      <trkpt lat="40.646727830171585" lon="14.592594187706709">
        <ele>299.11000000000001</ele>
        <time>2014-04-11T06:22:58Z</time>
      </trkpt>
      <trkpt lat="40.646811230108142" lon="14.592532915994525">
        <ele>298.14999999999998</ele>
        <time>2014-04-11T06:22:48Z</time>
      </trkpt>
      <trkpt lat="40.646836291998625" lon="14.592519337311387">
        <ele>297.67000000000002</ele>
        <time>2014-04-11T06:22:40Z</time>
      </trkpt>
      <trkpt lat="40.646960763260722" lon="14.592454629018903">
        <ele>295.74000000000001</ele>
        <time>2014-04-11T06:22:29Z</time>
      </trkpt>
      <trkpt lat="40.647025471553206" lon="14.592464016750455">
        <ele>294.30000000000001</ele>
        <time>2014-04-11T06:22:22Z</time>
      </trkpt>
      <trkpt lat="40.6470378767699" lon="14.592464603483677">
        <ele>294.30000000000001</ele>
        <time>2014-04-11T06:22:20Z</time>
      </trkpt>
      <trkpt lat="40.647049276158214" lon="14.592470051720738">
        <ele>293.81999999999999</ele>
        <time>2014-04-11T06:22:19Z</time>
      </trkpt>
      <trkpt lat="40.647133765742183" lon="14.592512212693691">
        <ele>291.89999999999998</ele>
        <time>2014-04-11T06:22:10Z</time>
      </trkpt>
      <trkpt lat="40.647215656936169" lon="14.592483462765813">
        <ele>290.94</ele>
        <time>2014-04-11T06:22:00Z</time>
      </trkpt>
      <trkpt lat="40.647272234782577" lon="14.592449851334095">
        <ele>288.05000000000001</ele>
        <time>2014-04-11T06:21:48Z</time>
      </trkpt>
      <trkpt lat="40.64731489866972" lon="14.592430153861642">
        <ele>286.61000000000001</ele>
        <time>2014-04-11T06:21:39Z</time>
      </trkpt>
      <trkpt lat="40.647355299443007" lon="14.592403415590525">
        <ele>285.17000000000002</ele>
        <time>2014-04-11T06:21:32Z</time>
      </trkpt>
      <trkpt lat="40.6473867315799" lon="14.592407522723079">
        <ele>284.20999999999998</ele>
        <time>2014-04-11T06:21:28Z</time>
      </trkpt>
      <trkpt lat="40.647442638874054" lon="14.59241540171206">
        <ele>282.27999999999997</ele>
        <time>2014-04-11T06:21:21Z</time>
      </trkpt>
      <trkpt lat="40.647456385195255" lon="14.592419927939773">
        <ele>281.80000000000001</ele>
        <time>2014-04-11T06:21:19Z</time>
      </trkpt>
      <trkpt lat="40.647525200620294" lon="14.592421855777502">
        <ele>280.36000000000001</ele>
        <time>2014-04-11T06:21:09Z</time>
      </trkpt>
      <trkpt lat="40.647588986903429" lon="14.592415736988187">
        <ele>278.92000000000002</ele>
        <time>2014-04-11T06:21:00Z</time>
      </trkpt>
      <trkpt lat="40.647623017430305" lon="14.592384723946452">
        <ele>277.48000000000002</ele>
        <time>2014-04-11T06:20:53Z</time>
      </trkpt>
      <trkpt lat="40.647653192281723" lon="14.592293193563819">
        <ele>275.56</ele>
        <time>2014-04-11T06:20:43Z</time>
      </trkpt>
      <trkpt lat="40.647661238908768" lon="14.592258492484689">
        <ele>274.11000000000001</ele>
        <time>2014-04-11T06:20:40Z</time>
      </trkpt>
      <trkpt lat="40.647700969129801" lon="14.592137541621923">
        <ele>271.23000000000002</ele>
        <time>2014-04-11T06:20:29Z</time>
      </trkpt>
      <trkpt lat="40.647777998819947" lon="14.592088842764497">
        <ele>267.86000000000001</ele>
        <time>2014-04-11T06:20:20Z</time>
      </trkpt>
      <trkpt lat="40.647880341857672" lon="14.592104684561491">
        <ele>264.5</ele>
        <time>2014-04-11T06:20:11Z</time>
      </trkpt>
      <trkpt lat="40.647937841713428" lon="14.592109546065331">
        <ele>261.62</ele>
        <time>2014-04-11T06:20:06Z</time>
      </trkpt>
      <trkpt lat="40.647953767329454" lon="14.592128908261657">
        <ele>262.10000000000002</ele>
        <time>2014-04-11T06:20:03Z</time>
      </trkpt>
      <trkpt lat="40.647972039878368" lon="14.592127734795213">
        <ele>261.62</ele>
        <time>2014-04-11T06:20:00Z</time>
      </trkpt>
      <trkpt lat="40.647988216951489" lon="14.592100074514747">
        <ele>261.62</ele>
        <time>2014-04-11T06:19:57Z</time>
      </trkpt>
      <trkpt lat="40.647997353225946" lon="14.592061433941126">
        <ele>261.62</ele>
        <time>2014-04-11T06:19:54Z</time>
      </trkpt>
      <trkpt lat="40.647993581369519" lon="14.592031929641962">
        <ele>261.62</ele>
        <time>2014-04-11T06:19:52Z</time>
      </trkpt>
      <trkpt lat="40.64799265936017" lon="14.592022290453315">
        <ele>261.62</ele>
        <time>2014-04-11T06:19:51Z</time>
      </trkpt>
      <trkpt lat="40.647990731522441" lon="14.591994630172849">
        <ele>261.62</ele>
        <time>2014-04-11T06:19:38Z</time>
      </trkpt>
      <trkpt lat="40.647978996858001" lon="14.591926317662001">
        <ele>262.57999999999998</ele>
        <time>2014-04-11T06:19:31Z</time>
      </trkpt>
      <trkpt lat="40.647945636883378" lon="14.591836128383875">
        <ele>264.01999999999998</ele>
        <time>2014-04-11T06:19:26Z</time>
      </trkpt>
      <trkpt lat="40.647955108433962" lon="14.591743508353829">
        <ele>266.89999999999998</ele>
        <time>2014-04-11T06:19:21Z</time>
      </trkpt>
      <trkpt lat="40.648001627996564" lon="14.591574026271701">
        <ele>267.38</ele>
        <time>2014-04-11T06:19:10Z</time>
      </trkpt>
      <trkpt lat="40.648038843646646" lon="14.59134628996253">
        <ele>265.94</ele>
        <time>2014-04-11T06:18:57Z</time>
      </trkpt>
      <trkpt lat="40.648013446480036" lon="14.591252831742167">
        <ele>266.42000000000002</ele>
        <time>2014-04-11T06:18:52Z</time>
      </trkpt>
      <trkpt lat="40.647984864190221" lon="14.591137832030654">
        <ele>266.42000000000002</ele>
        <time>2014-04-11T06:18:45Z</time>
      </trkpt>
      <trkpt lat="40.647929962724447" lon="14.590902635827661">
        <ele>265.45999999999998</ele>
        <time>2014-04-11T06:18:30Z</time>
      </trkpt>
      <trkpt lat="40.647900123149157" lon="14.590852428227663">
        <ele>264.98000000000002</ele>
        <time>2014-04-11T06:18:26Z</time>
      </trkpt>
      <trkpt lat="40.647906996309757" lon="14.590784618631005">
        <ele>263.54000000000002</ele>
        <time>2014-04-11T06:18:20Z</time>
      </trkpt>
      <trkpt lat="40.647942200303078" lon="14.590682275593281">
        <ele>262.10000000000002</ele>
        <time>2014-04-11T06:18:12Z</time>
      </trkpt>
      <trkpt lat="40.647973967716098" lon="14.590647155418992">
        <ele>261.13999999999999</ele>
        <time>2014-04-11T06:18:09Z</time>
      </trkpt>
      <trkpt lat="40.648054936900735" lon="14.590538442134857">
        <ele>259.20999999999998</ele>
        <time>2014-04-11T06:17:59Z</time>
      </trkpt>
      <trkpt lat="40.648078909143806" lon="14.590334929525852">
        <ele>259.20999999999998</ele>
        <time>2014-04-11T06:17:47Z</time>
      </trkpt>
      <trkpt lat="40.648080669343472" lon="14.590145749971271">
        <ele>259.69</ele>
        <time>2014-04-11T06:17:37Z</time>
      </trkpt>
      <trkpt lat="40.648113442584872" lon="14.589991522952914">
        <ele>258.25</ele>
        <time>2014-04-11T06:17:27Z</time>
      </trkpt>
      <trkpt lat="40.648172702640295" lon="14.589886162430048">
        <ele>256.81</ele>
        <time>2014-04-11T06:17:18Z</time>
      </trkpt>
      <trkpt lat="40.648253504186869" lon="14.589681141078472">
        <ele>254.88999999999999</ele>
        <time>2014-04-11T06:17:05Z</time>
      </trkpt>
      <trkpt lat="40.648309495300055" lon="14.589601764455438">
        <ele>254.41</ele>
        <time>2014-04-11T06:16:59Z</time>
      </trkpt>
      <trkpt lat="40.648339921608567" lon="14.589558346197009">
        <ele>253.93000000000001</ele>
        <time>2014-04-11T06:16:56Z</time>
      </trkpt>
      <trkpt lat="40.648424075916409" lon="14.589405376464128">
        <ele>254.88999999999999</ele>
        <time>2014-04-11T06:16:44Z</time>
      </trkpt>
      <trkpt lat="40.648433715105057" lon="14.589394396170974">
        <ele>254.88999999999999</ele>
        <time>2014-04-11T06:16:43Z</time>
      </trkpt>
      <trkpt lat="40.648459615185857" lon="14.589230865240097">
        <ele>251.52000000000001</ele>
        <time>2014-04-11T06:15:34Z</time>
      </trkpt>
      <trkpt lat="40.648512337356806" lon="14.58911569789052">
        <ele>250.08000000000001</ele>
        <time>2014-04-11T06:15:06Z</time>
      </trkpt>
      <trkpt lat="40.6485247425735" lon="14.589067753404379">
        <ele>249.59999999999999</ele>
        <time>2014-04-11T06:15:03Z</time>
      </trkpt>
      <trkpt lat="40.648531448096037" lon="14.588979156687856">
        <ele>248.63999999999999</ele>
        <time>2014-04-11T06:14:58Z</time>
      </trkpt>
      <trkpt lat="40.648565143346786" lon="14.588852757588029">
        <ele>247.68000000000001</ele>
        <time>2014-04-11T06:14:49Z</time>
      </trkpt>
      <trkpt lat="40.648562628775835" lon="14.58879073150456">
        <ele>246.72</ele>
        <time>2014-04-11T06:14:45Z</time>
      </trkpt>
      <trkpt lat="40.648558018729091" lon="14.588772626593709">
        <ele>247.19999999999999</ele>
        <time>2014-04-11T06:14:44Z</time>
      </trkpt>
      <trkpt lat="40.648601185530424" lon="14.588633067905903">
        <ele>247.68000000000001</ele>
        <time>2014-04-11T06:14:33Z</time>
      </trkpt>
      <trkpt lat="40.648618619889021" lon="14.58863683976233">
        <ele>248.63999999999999</ele>
        <time>2014-04-11T06:14:31Z</time>
      </trkpt>
      <trkpt lat="40.648649632930756" lon="14.588656118139625">
        <ele>248.63999999999999</ele>
        <time>2014-04-11T06:14:28Z</time>
      </trkpt>
      <trkpt lat="40.648697661235929" lon="14.588648490607738">
        <ele>249.12</ele>
        <time>2014-04-11T06:14:24Z</time>
      </trkpt>
      <trkpt lat="40.64881157130003" lon="14.588702050969005">
        <ele>250.56</ele>
        <time>2014-04-11T06:14:13Z</time>
      </trkpt>
      <trkpt lat="40.648827999830246" lon="14.588709343224764">
        <ele>251.03999999999999</ele>
        <time>2014-04-11T06:14:11Z</time>
      </trkpt>
      <trkpt lat="40.648832023143768" lon="14.588710516691208">
        <ele>251.03999999999999</ele>
        <time>2014-04-11T06:14:10Z</time>
      </trkpt>
      <trkpt lat="40.648816348984838" lon="14.588680258020759">
        <ele>249.59999999999999</ele>
        <time>2014-04-11T06:13:50Z</time>
      </trkpt>
      <trkpt lat="40.64881794154644" lon="14.588635079562664">
        <ele>247.19999999999999</ele>
        <time>2014-04-11T06:13:42Z</time>
      </trkpt>
      <trkpt lat="40.648824814707041" lon="14.588542878627777">
        <ele>245.27000000000001</ele>
        <time>2014-04-11T06:13:35Z</time>
      </trkpt>
      <trkpt lat="40.648909052833915" lon="14.58852837793529">
        <ele>244.31</ele>
        <time>2014-04-11T06:13:29Z</time>
      </trkpt>
      <trkpt lat="40.648930761963129" lon="14.588561654090881">
        <ele>243.83000000000001</ele>
        <time>2014-04-11T06:13:25Z</time>
      </trkpt>
      <trkpt lat="40.64902950078249" lon="14.588629296049476">
        <ele>241.91</ele>
        <time>2014-04-11T06:13:15Z</time>
      </trkpt>
      <trkpt lat="40.64907249994576" lon="14.588660644367337">
        <ele>241.43000000000001</ele>
        <time>2014-04-11T06:13:10Z</time>
      </trkpt>
      <trkpt lat="40.649150032550097" lon="14.588698698207736">
        <ele>240.47</ele>
        <time>2014-04-11T06:13:00Z</time>
      </trkpt>
      <trkpt lat="40.649189846590161" lon="14.58869207650423">
        <ele>239.99000000000001</ele>
        <time>2014-04-11T06:12:57Z</time>
      </trkpt>
      <trkpt lat="40.649325801059604" lon="14.588548075407743">
        <ele>239.02000000000001</ele>
        <time>2014-04-11T06:12:45Z</time>
      </trkpt>
      <trkpt lat="40.649255057796836" lon="14.588386975228786">
        <ele>239.99000000000001</ele>
        <time>2014-04-11T06:12:34Z</time>
      </trkpt>
      <trkpt lat="40.64922546967864" lon="14.588343473151326">
        <ele>239.99000000000001</ele>
        <time>2014-04-11T06:12:31Z</time>
      </trkpt>
      <trkpt lat="40.649228068068624" lon="14.588313549757004">
        <ele>240.47</ele>
        <time>2014-04-11T06:12:25Z</time>
      </trkpt>
      <trkpt lat="40.64918540418148" lon="14.588253451511264">
        <ele>241.91</ele>
        <time>2014-04-11T06:12:15Z</time>
      </trkpt>
      <trkpt lat="40.649173837155104" lon="14.588196203112602">
        <ele>241.91</ele>
        <time>2014-04-11T06:12:12Z</time>
      </trkpt>
      <trkpt lat="40.649170903488994" lon="14.588126633316278">
        <ele>242.38999999999999</ele>
        <time>2014-04-11T06:12:08Z</time>
      </trkpt>
      <trkpt lat="40.649209460243583" lon="14.587990092113614">
        <ele>242.87</ele>
        <time>2014-04-11T06:11:59Z</time>
      </trkpt>
      <trkpt lat="40.649218512699008" lon="14.587970478460193">
        <ele>243.34999999999999</ele>
        <time>2014-04-11T06:11:57Z</time>
      </trkpt>
      <trkpt lat="40.649331752210855" lon="14.58777392283082">
        <ele>244.78999999999999</ele>
        <time>2014-04-11T06:11:46Z</time>
      </trkpt>
      <trkpt lat="40.649416325613856" lon="14.587654480710626">
        <ele>245.75</ele>
        <time>2014-04-11T06:11:36Z</time>
      </trkpt>
      <trkpt lat="40.649454966187477" lon="14.587493548169732">
        <ele>246.22999999999999</ele>
        <time>2014-04-11T06:11:25Z</time>
      </trkpt>
      <trkpt lat="40.649483632296324" lon="14.587452057749033">
        <ele>245.75</ele>
        <time>2014-04-11T06:11:10Z</time>
      </trkpt>
      <trkpt lat="40.649486901238561" lon="14.587418446317315">
        <ele>245.27000000000001</ele>
        <time>2014-04-11T06:10:59Z</time>
      </trkpt>
      <trkpt lat="40.649492600932717" lon="14.58736589178443">
        <ele>243.83000000000001</ele>
        <time>2014-04-11T06:10:52Z</time>
      </trkpt>
      <trkpt lat="40.649490840733051" lon="14.587334711104631">
        <ele>245.27000000000001</ele>
        <time>2014-04-11T06:10:38Z</time>
      </trkpt>
      <trkpt lat="40.649491008371115" lon="14.587274277582765">
        <ele>244.31</ele>
        <time>2014-04-11T06:10:23Z</time>
      </trkpt>
      <trkpt lat="40.649485979229212" lon="14.587198505178094">
        <ele>244.31</ele>
        <time>2014-04-11T06:09:58Z</time>
      </trkpt>
      <trkpt lat="40.649439878761768" lon="14.587104292586446">
        <ele>243.83000000000001</ele>
        <time>2014-04-11T06:09:34Z</time>
      </trkpt>
    </trkseg>
  </trk>

</gpx>